Time;durP1;ratioP1;P1;durP2;ratioP2;P2;SDS_P1;SDS_P2;PMS_P1;PMS_P2;Temp;Humidity;BMP_temperature;BMP_pressure;BME280_temperature;BME280_humidity;BME280_pressure;Samples;Min_cycle;Max_cycle;Signal;HPM_P1;HPM_P2
2021/04/05 00:00:12;;;;;;;17.55;9.85;;;;;;;1.97;71.08;99344.98;1641509;86;21714;-63
2021/04/05 00:02:40;;;;;;;17.55;9.83;;;;;;;2.05;71.29;99334.06;1642548;84;22056;-63
2021/04/05 00:05:13;;;;;;;16.20;9.88;;;;;;;2.02;71.24;99343.20;1636515;84;21262;-63
2021/04/05 00:07:44;;;;;;;13.95;9.30;;;;;;;1.95;71.29;99339.81;1615284;86;21590;-63
2021/04/05 00:10:44;;;;;;;17.92;10.35;;;;;;;1.87;71.30;99345.55;1600152;87;21191;-62
2021/04/05 00:13:15;;;;;;;18.55;11.05;;;;;;;1.79;71.33;99348.67;1741510;80;21643;-64
2021/04/05 00:15:44;;;;;;;16.17;10.18;;;;;;;1.67;71.32;99347.06;1741782;81;22167;-64
2021/04/05 00:18:15;;;;;;;16.20;10.32;;;;;;;1.60;71.33;99340.67;1719702;82;21709;-64
2021/04/05 00:20:51;;;;;;;16.40;10.20;;;;;;;1.51;71.44;99336.02;1739248;80;21608;-63
2021/04/05 00:23:19;;;;;;;17.10;9.63;;;;;;;1.49;71.43;99336.93;1728418;80;21594;-63
2021/04/05 00:25:47;;;;;;;;;;;;;;;1.47;71.45;99329.58;1730563;81;21679;-63
2021/04/05 00:28:15;;;;;;;15.75;9.00;;;;;;;1.47;71.77;99320.09;1737645;81;21976;-63
2021/04/05 00:30:45;;;;;;;13.20;9.33;;;;;;;1.48;71.60;99321.80;1646491;81;21545;-64
2021/04/05 00:33:14;;;;;;;16.73;9.75;;;;;;;1.47;71.57;99314.91;1641173;86;21821;-64
2021/04/05 00:35:42;;;;;;;14.18;9.18;;;;;;;1.47;71.42;99309.73;1645435;85;21652;-64
2021/04/05 00:38:12;;;;;;;14.30;8.88;;;;;;;1.47;71.33;99308.44;1636135;86;21741;-64
2021/04/05 00:40:49;;;;;;;12.80;8.45;;;;;;;1.44;71.41;99305.87;1647823;85;21786;-64
2021/04/05 00:43:18;;;;;;;14.07;9.00;;;;;;;1.41;71.36;99305.05;1640667;86;21608;-65
2021/04/05 00:45:46;;;;;;;13.90;8.18;;;;;;;1.36;71.45;99311.14;1599484;87;21577;-62
2021/04/05 00:48:15;;;;;;;16.40;9.28;;;;;;;1.28;71.88;99315.97;1651679;83;21659;-63
2021/04/05 00:50:55;;;;;;;17.60;10.03;;;;;;;1.31;71.90;99312.06;1709605;83;21223;-63
2021/04/05 00:53:34;;;;;;;17.75;10.40;;;;;;;1.39;71.88;99311.53;1710372;82;21921;-64
2021/04/05 00:56:04;;;;;;;15.93;9.53;;;;;;;1.30;71.86;99309.03;1706865;82;21817;-63
2021/04/05 00:58:32;;;;;;;14.35;9.95;;;;;;;1.24;71.76;99312.55;1705592;82;21615;-63
2021/04/05 01:01:05;;;;;;;15.75;8.93;;;;;;;1.18;71.63;99311.77;1709582;82;21541;-62
2021/04/05 01:03:38;;;;;;;13.35;8.38;;;;;;;1.10;71.48;99308.81;1712567;82;21584;-63
2021/04/05 01:06:16;;;;;;;12.65;7.80;;;;;;;1.04;71.44;99304.14;1701665;83;22132;-63
2021/04/05 01:08:44;;;;;;;11.93;8.08;;;;;;;1.00;71.38;99309.78;1677772;83;21722;-65
2021/04/05 01:11:14;;;;;;;13.20;8.20;;;;;;;0.97;71.39;99305.92;1716195;81;22156;-64
2021/04/05 01:13:43;;;;;;;11.88;8.23;;;;;;;0.96;71.38;99305.48;1714042;82;21675;-64
2021/04/05 01:16:12;;;;;;;11.80;7.80;;;;;;;0.93;71.33;99302.50;1704194;83;21584;-64
2021/04/05 01:18:41;;;;;;;18.17;8.15;;;;;;;0.91;71.37;99304.24;1705959;82;21579;-62
2021/04/05 01:21:10;;;;;;;11.68;7.80;;;;;;;0.89;71.42;99300.81;1666963;84;21589;-63
2021/04/05 01:23:38;;;;;;;13.90;8.13;;;;;;;0.87;71.45;99299.13;1714078;82;21639;-62
2021/04/05 01:26:07;;;;;;;11.68;7.35;;;;;;;0.88;71.50;99299.53;1715345;83;21525;-63
2021/04/05 01:28:35;;;;;;;16.05;8.60;;;;;;;0.84;71.54;99299.14;1715550;81;21633;-63
2021/04/05 01:31:04;;;;;;;13.20;8.30;;;;;;;0.84;71.53;99297.84;1648704;84;21913;-63
2021/04/05 01:33:39;;;;;;;13.18;7.62;;;;;;;0.81;71.53;99298.74;1683438;84;21590;-65
2021/04/05 01:36:16;;;;;;;11.43;7.22;;;;;;;0.80;71.69;99295.72;1674798;84;21698;-64
2021/04/05 01:38:50;;;;;;;14.58;8.50;;;;;;;0.83;71.58;99291.82;1682443;84;21691;-64
2021/04/05 01:41:30;;;;;;;11.68;7.60;;;;;;;0.82;71.56;99292.67;1645429;86;21191;-63
2021/04/05 01:44:00;;;;;;;12.65;8.30;;;;;;;0.84;71.56;99296.11;1673815;84;22059;-63
2021/04/05 01:46:29;;;;;;;11.68;8.35;;;;;;;0.84;71.53;99294.81;1680538;84;21601;-63
2021/04/05 01:48:59;;;;;;;17.62;9.93;;;;;;;0.81;71.50;99296.16;1680990;84;21699;-63
2021/04/05 01:51:28;;;;;;;13.30;9.08;;;;;;;0.83;71.50;99294.81;1678538;84;21707;-63
2021/04/05 01:53:57;;;;;;;16.15;9.95;;;;;;;0.84;71.48;99293.96;1681722;84;21635;-66
2021/04/05 01:56:25;;;;;;;18.80;9.80;;;;;;;0.82;71.47;99288.79;1681155;83;21680;-64
2021/04/05 01:58:54;;;;;;;16.23;10.43;;;;;;;0.85;71.46;99285.31;1678450;84;21643;-63
2021/04/05 02:01:29;;;;;;;13.93;8.43;;;;;;;0.85;71.34;99285.31;1680804;84;21769;-63
2021/04/05 02:03:58;;;;;;;15.83;8.88;;;;;;;0.85;71.34;99280.12;1680521;84;21583;-65
2021/04/05 02:06:30;;;;;;;13.05;7.20;;;;;;;0.84;71.39;99279.72;1682216;84;21608;-65
2021/04/05 02:08:59;;;;;;;9.50;7.47;;;;;;;0.82;71.50;99280.18;1683665;84;21954;-64
2021/04/05 02:11:32;;;;;;;10.58;8.13;;;;;;;0.82;71.49;99273.70;1677580;84;21719;-62
2021/04/05 02:14:02;;;;;;;11.25;8.30;;;;;;;0.84;71.49;99276.69;1679053;84;21221;-63
2021/04/05 02:16:31;;;;;;;10.88;7.30;;;;;;;0.83;71.53;99277.58;1681920;84;21605;-64
2021/04/05 02:19:00;;;;;;;11.90;8.08;;;;;;;0.83;71.58;99270.23;1679151;84;21183;-64
2021/04/05 02:21:29;;;;;;;11.75;7.45;;;;;;;0.84;71.53;99275.84;1673013;84;22357;-63
2021/04/05 02:24:04;;;;;;;9.13;6.20;;;;;;;0.77;71.43;99270.73;1678942;84;21675;-63
2021/04/05 02:26:35;;;;;;;10.03;6.85;;;;;;;0.73;71.75;99269.46;1682454;84;21621;-62
2021/04/05 02:29:04;;;;;;;9.30;6.83;;;;;;;0.69;71.77;99265.19;1679262;83;21710;-63
2021/04/05 02:31:34;;;;;;;10.72;7.05;;;;;;;0.69;71.75;99263.45;1697265;82;21655;-63
2021/04/05 02:34:05;;;;;;;9.95;7.33;;;;;;;0.67;71.78;99264.34;1675705;83;21953;-62
2021/04/05 02:36:33;;;;;;;12.53;7.25;;;;;;;0.66;71.89;99269.97;1700842;83;21537;-62
2021/04/05 02:39:09;;;;;;;13.03;7.80;;;;;;;0.66;71.89;99267.38;1696637;83;21612;-63
2021/04/05 02:41:41;;;;;;;13.18;7.62;;;;;;;0.61;72.50;99270.88;1692110;83;21786;-64
2021/04/05 02:44:09;;;;;;;12.07;7.00;;;;;;;0.61;72.33;99270.88;1696656;83;21615;-65
2021/04/05 02:46:39;;;;;;;13.70;8.65;;;;;;;0.54;72.29;99269.61;1700154;82;22529;-64
2021/04/05 02:49:13;;;;;;;12.98;7.60;;;;;;;0.50;72.34;99265.34;1709303;82;21699;-64
2021/04/05 02:51:46;;;;;;;13.85;8.13;;;;;;;0.47;72.43;99263.20;1708330;83;21623;-65
2021/04/05 02:54:15;;;;;;;12.13;7.80;;;;;;;0.49;72.42;99261.05;1705796;82;21679;-65
2021/04/05 02:56:43;;;;;;;12.18;7.08;;;;;;;0.52;72.54;99263.59;1710588;82;21186;-65
2021/04/05 02:59:13;;;;;;;11.08;7.30;;;;;;;0.55;72.47;99262.73;1709718;83;22067;-65
2021/04/05 03:01:41;;;;;;;10.90;7.95;;;;;;;0.55;72.33;99260.14;1671885;83;21629;-64
2021/04/05 03:04:09;;;;;;;14.18;7.58;;;;;;;0.57;72.25;99263.13;1705207;82;21154;-64
2021/04/05 03:06:38;;;;;;;9.38;6.95;;;;;;;0.56;72.35;99260.10;1706470;82;21632;-64
2021/04/05 03:09:07;;;;;;;11.53;6.97;;;;;;;0.54;72.36;99263.14;1696400;82;21635;-64
2021/04/05 03:11:37;;;;;;;10.43;6.53;;;;;;;0.58;72.37;99260.09;1705142;83;21976;-64
2021/04/05 03:14:10;;;;;;;9.58;6.42;;;;;;;0.58;72.21;99256.22;1697695;82;21679;-64
2021/04/05 03:16:40;;;;;;;11.45;7.08;;;;;;;0.63;72.15;99257.05;1695810;83;21521;-63
2021/04/05 03:19:08;;;;;;;14.13;7.83;;;;;;;0.72;72.03;99252.23;1707771;83;21217;-64
2021/04/05 03:21:35;;;;;;;;;;;;;;;0.76;71.72;99252.17;1677141;83;21604;-64
2021/04/05 03:24:05;;;;;;;12.40;8.05;;;;;;;0.74;71.61;99251.34;1701920;82;22162;-64
2021/04/05 03:26:32;;;;;;;16.35;9.18;;;;;;;0.72;71.47;99247.06;1708287;82;21646;-64
2021/04/05 03:29:00;;;;;;;11.28;8.18;;;;;;;0.72;71.42;99243.17;1709853;83;21568;-62
2021/04/05 03:31:29;;;;;;;13.78;8.40;;;;;;;0.70;71.49;99243.62;1688877;83;21614;-62
2021/04/05 03:34:01;;;;;;;13.00;7.33;;;;;;;0.73;71.55;99243.58;1675614;83;21751;-62
2021/04/05 03:36:45;;;;;;;11.57;8.23;;;;;;;0.76;71.68;99240.53;1667035;83;21947;-63
2021/04/05 03:39:14;;;;;;;10.98;7.45;;;;;;;0.78;71.72;99236.20;1667960;84;21251;-62
2021/04/05 03:41:56;;;;;;;11.95;7.42;;;;;;;0.86;71.62;99239.15;1632986;85;21222;-63
2021/04/05 03:44:32;;;;;;;8.45;6.12;;;;;;;0.87;71.71;99231.82;1649406;85;21687;-64
2021/04/05 03:47:08;;;;;;;12.53;6.97;;;;;;;0.88;71.75;99230.93;1694865;83;21614;-64
2021/04/05 03:49:40;;;;;;;13.10;6.90;;;;;;;0.89;71.68;99238.69;1695033;83;22112;-65
2021/04/05 03:52:27;;;;;;;12.20;7.08;;;;;;;0.94;71.67;99233.03;1651432;85;21699;-65
2021/04/05 03:55:06;;;;;;;11.10;7.17;;;;;;;0.95;71.70;99232.59;1643026;84;21608;-63
2021/04/05 03:57:45;;;;;;;10.32;7.15;;;;;;;1.02;71.68;99231.66;1706429;83;21612;-64
2021/04/05 04:00:14;;;;;;;13.93;6.67;;;;;;;1.09;71.52;99222.95;1706075;83;21591;-63
2021/04/05 04:02:46;;;;;;;10.55;7.28;;;;;;;1.14;71.33;99224.19;1699342;83;22061;-63
2021/04/05 04:05:26;;;;;;;10.18;6.80;;;;;;;1.17;71.25;99230.64;1701026;82;21658;-63
2021/04/05 04:10:33;;;;;;;10.82;6.85;;;;;;;1.27;71.25;99224.46;1865623;74;23159;-64
2021/04/05 04:13:05;;;;;;;11.10;7.00;;;;;;;1.28;71.07;99219.72;1832635;76;21575;-63
2021/04/05 04:15:33;;;;;;;9.70;7.15;;;;;;;1.30;71.17;99223.55;1823947;76;21804;-63
2021/04/05 04:18:03;;;;;;;12.50;7.83;;;;;;;1.38;71.22;99226.93;1823307;77;21607;-63
2021/04/05 04:20:31;;;;;;;12.00;6.45;;;;;;;1.44;71.10;99220.38;1822705;75;21681;-63
2021/04/05 04:23:00;;;;;;;10.80;7.22;;;;;;;1.48;71.01;99223.78;1771646;79;21506;-63
2021/04/05 04:25:28;;;;;;;13.48;7.30;;;;;;;1.47;70.95;99215.16;1796878;77;21550;-63
2021/04/05 04:27:56;;;;;;;10.20;7.10;;;;;;;1.51;71.13;99212.09;1790205;78;22012;-63
2021/04/05 04:30:32;;;;;;;10.35;7.03;;;;;;;1.53;71.09;99207.75;1792092;77;21570;-64
2021/04/05 04:33:05;;;;;;;8.33;6.03;;;;;;;1.53;71.17;99206.00;1791926;77;21611;-64
2021/04/05 04:35:37;;;;;;;11.05;6.03;;;;;;;1.64;71.40;99198.52;1797727;77;21641;-63
2021/04/05 04:38:05;;;;;;;10.40;6.47;;;;;;;1.80;71.37;99201.31;1789632;77;21611;-66
2021/04/05 04:40:35;;;;;;;9.25;6.05;;;;;;;1.90;71.23;99200.73;1769359;80;21910;-62
2021/04/05 04:43:05;;;;;;;10.00;6.75;;;;;;;1.97;71.00;99197.18;1780026;78;21636;-63
2021/04/05 04:45:34;;;;;;;12.25;6.78;;;;;;;2.00;70.77;99193.67;1791036;77;21556;-63
2021/04/05 04:48:02;;;;;;;11.28;7.40;;;;;;;1.99;70.53;99193.27;1767454;79;21595;-62
2021/04/05 04:50:31;;;;;;;10.28;6.40;;;;;;;1.98;70.63;99195.02;1798939;77;21622;-62
2021/04/05 04:52:59;;;;;;;10.10;7.15;;;;;;;2.03;70.52;99189.30;1771620;80;21957;-62
2021/04/05 04:55:29;;;;;;;11.40;7.08;;;;;;;2.08;70.42;99186.20;1763127;79;21167;-63
2021/04/05 04:58:01;;;;;;;11.53;7.72;;;;;;;2.14;70.30;99182.66;1775496;79;21654;-63
2021/04/05 05:00:32;;;;;;;13.10;7.42;;;;;;;2.24;70.24;99185.53;1791356;77;21655;-62
2021/04/05 05:03:00;;;;;;;12.68;6.75;;;;;;;2.39;70.00;99187.44;1790761;77;21657;-61
2021/04/05 05:05:32;;;;;;;12.60;7.83;;;;;;;2.58;70.07;99184.97;1747921;80;21894;-62
2021/04/05 05:08:22;;;;;;;12.68;7.62;;;;;;;2.78;69.71;99178.09;1791250;77;21614;-63
2021/04/05 05:11:16;;;;;;;10.45;7.00;;;;;;;2.79;69.39;99177.23;1725093;80;21654;-62
2021/04/05 05:13:44;;;;;;;10.13;7.08;;;;;;;2.86;69.29;99181.84;1743038;80;21545;-63
2021/04/05 05:16:13;;;;;;;11.73;7.15;;;;;;;2.92;68.42;99176.55;1772261;79;21550;-61
2021/04/05 05:18:41;;;;;;;14.13;7.35;;;;;;;3.02;68.53;99172.03;1778527;80;21538;-63
2021/04/05 05:21:34;;;;;;;13.70;8.93;;;;;;;3.11;68.16;99171.41;1772470;79;21597;-63
2021/04/05 05:24:05;;;;;;;13.00;7.83;;;;;;;3.23;68.05;99171.59;1776269;79;21538;-63
2021/04/05 05:26:35;;;;;;;16.35;7.95;;;;;;;3.30;67.18;99177.53;1773857;79;21558;-64
2021/04/05 05:29:06;;;;;;;14.35;8.68;;;;;;;3.30;66.97;99180.13;1782449;78;21567;-63
2021/04/05 05:31:41;;;;;;;15.28;8.40;;;;;;;3.33;66.97;99173.55;1741187;81;22055;-61
2021/04/05 05:34:10;;;;;;;11.73;8.45;;;;;;;3.40;66.64;99176.89;1747170;81;21683;-62
2021/04/05 05:36:38;;;;;;;15.08;8.58;;;;;;;3.41;66.90;99175.98;1776492;79;21705;-63
2021/04/05 05:39:06;;;;;;;13.32;8.48;;;;;;;3.40;67.07;99179.03;1777440;79;21673;-62
2021/04/05 05:41:47;;;;;;;;;;;;;;;3.42;66.85;99175.96;1776932;79;21208;-63
2021/04/05 05:44:26;;;;;;;10.13;7.33;;;;;;;3.39;67.42;99169.55;1778009;79;22068;-62
2021/04/05 05:47:17;;;;;;;15.95;9.20;;;;;;;3.45;67.15;99162.91;1767707;78;21614;-62
2021/04/05 05:50:11;;;;;;;11.60;7.92;;;;;;;3.56;66.82;99159.20;1771905;78;21131;-61
2021/04/05 05:53:24;;;;;;;12.68;7.95;;;;;;;3.59;66.61;99160.00;1778030;78;21629;-62
2021/04/05 05:56:13;;;;;;;11.08;7.42;;;;;;;3.53;66.81;99155.39;1778620;78;21552;-61
2021/04/05 05:58:52;;;;;;;17.62;8.68;;;;;;;3.53;66.66;99145.00;1764839;78;21980;-61
2021/04/05 06:01:41;;;;;;;14.75;7.17;;;;;;;3.64;67.10;99149.06;1776303;79;21713;-63
2021/04/05 06:04:38;;;;;;;14.50;8.03;;;;;;;3.74;66.67;99140.59;1776754;79;21662;-64
2021/04/05 06:07:34;;;;;;;16.85;7.35;;;;;;;3.77;66.62;99137.94;1774911;78;21209;-60
2021/04/05 06:10:11;;;;;;;12.00;6.33;;;;;;;3.76;65.94;99140.57;1781818;78;21181;-61
2021/04/05 06:12:48;;;;;;;9.28;6.78;;;;;;;3.73;65.43;99135.01;1798136;77;21984;-63
2021/04/05 06:15:20;;;;;;;9.85;6.85;;;;;;;3.65;65.37;99138.20;1797982;77;21551;-60
2021/04/05 06:18:24;;;;;;;9.83;7.60;;;;;;;3.60;65.78;99130.95;1788488;78;21552;-62
2021/04/05 06:21:05;;;;;;;10.80;6.95;;;;;;;3.65;66.30;99136.45;1795819;77;21790;-62
2021/04/05 06:26:12;;;;;;;7.97;6.33;;;;;;;3.90;66.12;99132.86;1778915;77;23085;-64
2021/04/05 06:28:57;;;;;;;9.20;6.40;;;;;;;4.05;65.81;99134.66;1857842;75;23294;-63
2021/04/05 06:31:39;;;;;;;8.80;5.65;;;;;;;4.09;65.44;99132.42;1831021;77;21622;-64
2021/04/05 06:34:36;;;;;;;8.15;5.55;;;;;;;4.19;64.97;99133.89;1834698;77;22140;-65
2021/04/05 06:37:25;;;;;;;;;;;;;;;4.27;63.67;99135.84;1837323;77;21638;-70
2021/04/05 06:40:08;;;;;;;6.75;4.85;;;;;;;4.35;62.75;99140.00;1832221;76;20485;-65
2021/04/05 06:43:07;;;;;;;8.53;4.50;;;;;;;4.36;61.18;99126.11;1772995;78;21641;-63
2021/04/05 06:46:15;;;;;;;6.58;4.53;;;;;;;4.43;62.33;99128.52;1799617;78;21604;-66
2021/04/05 06:49:09;;;;;;;5.15;4.10;;;;;;;4.56;62.25;99129.05;1773624;78;26949;-69
2021/04/05 06:51:55;;;;;;;7.40;4.47;;;;;;;4.71;62.24;99126.48;1766483;78;21550;-65
2021/04/05 06:55:06;;;;;;;5.62;4.17;;;;;;;4.85;61.91;99126.94;1770946;78;21580;-63
2021/04/05 06:57:48;;;;;;;5.15;3.83;;;;;;;4.95;61.49;99121.48;1798335;78;21210;-62
2021/04/05 07:00:27;;;;;;;4.53;2.83;;;;;;;5.03;59.96;99115.16;1772668;79;21627;-60
2021/04/05 07:03:37;;;;;;;4.95;3.00;;;;;;;5.15;59.54;99117.86;1772534;78;22060;-62
2021/04/05 07:06:37;;;;;;;3.00;2.55;;;;;;;5.31;57.97;99114.33;1761554;79;21214;-61
2021/04/05 07:09:22;;;;;;;4.20;2.77;;;;;;;5.48;57.29;99108.61;1769217;79;21650;-67
2021/04/05 07:12:15;;;;;;;7.35;3.58;;;;;;;5.62;56.57;99107.75;1766847;79;21575;-67
2021/04/05 07:15:23;;;;;;;6.72;3.22;;;;;;;5.75;55.35;99111.29;1657760;84;21730;-61
2021/04/05 07:18:44;;;;;;;8.90;4.75;;;;;;;5.95;53.66;99106.72;1839550;75;28459;-62
2021/04/05 07:21:20;;;;;;;6.90;4.20;;;;;;;6.15;53.21;99110.88;1829305;76;21551;-62
2021/04/05 07:24:19;;;;;;;5.70;4.03;;;;;;;6.34;53.25;99110.26;1811761;76;21767;-60
2021/04/05 07:26:51;;;;;;;6.33;3.55;;;;;;;6.40;53.26;99097.86;1823385;76;21165;-60
2021/04/05 07:29:35;;;;;;;5.05;3.60;;;;;;;6.50;53.42;99091.86;1823040;76;21714;-61
2021/04/05 07:32:11;;;;;;;6.30;3.98;;;;;;;6.63;53.33;99089.67;1822016;76;21587;-59
2021/04/05 07:35:02;;;;;;;7.92;3.42;;;;;;;6.76;52.95;99090.06;1824362;76;21654;-60
2021/04/05 07:37:53;;;;;;;4.47;3.58;;;;;;;6.84;52.17;99085.43;1829617;76;21968;-64
2021/04/05 07:40:50;;;;;;;6.03;4.40;;;;;;;6.85;51.36;99079.74;1754941;79;21685;-58
2021/04/05 07:43:48;;;;;;;5.08;3.75;;;;;;;6.94;51.86;99071.56;1827095;76;21570;-62
2021/04/05 07:46:38;;;;;;;4.95;3.12;;;;;;;7.19;51.13;99071.48;1762188;79;21670;-61
2021/04/05 07:49:33;;;;;;;5.33;2.72;;;;;;;7.39;49.17;99065.50;1871306;75;23184;-59
2021/04/05 07:52:04;;;;;;;3.83;2.58;;;;;;;7.44;49.94;99067.92;1780191;78;21638;-61
2021/04/05 07:54:35;;;;;;;4.20;3.12;;;;;;;7.45;48.80;99054.79;1778580;79;22137;-60
2021/04/05 07:57:20;;;;;;;2.92;2.60;;;;;;;7.53;48.65;99055.79;1797010;78;21655;-61
2021/04/05 08:00:28;;;;;;;6.37;3.33;;;;;;;7.56;48.01;99051.29;1772887;79;21568;-62
2021/04/05 08:03:15;;;;;;;;;;;;;;;7.72;46.72;99058.09;1780878;79;21633;-61
2021/04/05 08:06:05;;;;;;;3.62;0.98;;;;;;;7.94;43.24;99048.87;1785031;78;20476;-62
2021/04/05 08:08:50;;;;;;;1.20;1.10;;;;;;;8.08;43.93;99042.20;1775109;79;22114;-63
2021/04/05 08:12:08;;;;;;;2.35;1.20;;;;;;;8.18;42.68;99035.22;1797821;78;21679;-62
2021/04/05 08:14:52;;;;;;;;;;;;;;;8.31;43.33;99024.23;1773766;80;21589;-60
2021/04/05 08:17:51;;;;;;;2.05;1.00;;;;;;;8.41;42.05;99020.74;1782172;79;20473;-60
2021/04/05 08:20:27;;;;;;;0.98;0.80;;;;;;;8.33;41.68;99017.99;1778882;79;21164;-60
2021/04/05 08:23:30;;;;;;;0.80;0.80;;;;;;;8.27;41.40;99018.27;1777578;79;21609;-60
2021/04/05 08:26:38;;;;;;;1.50;1.10;;;;;;;8.24;41.37;99010.53;1777548;79;21579;-68
2021/04/05 08:29:25;;;;;;;1.40;1.07;;;;;;;8.22;41.57;99007.60;1778107;79;21599;-69
2021/04/05 08:32:19;;;;;;;1.82;1.60;;;;;;;8.08;39.94;99012.09;1776798;79;21567;-64
2021/04/05 08:35:08;;;;;;;3.10;1.72;;;;;;;8.01;41.68;99007.59;1777226;79;21649;-64
2021/04/05 08:38:18;;;;;;;2.87;1.72;;;;;;;8.02;42.48;99004.52;1779390;79;21595;-62
2021/04/05 08:41:20;;;;;;;2.98;1.47;;;;;;;8.02;42.66;99000.12;1675720;83;21237;-66
2021/04/05 08:44:14;;;;;;;2.62;2.22;;;;;;;8.06;42.75;99002.16;1770941;78;21627;-63
2021/04/05 08:46:42;;;;;;;2.90;1.90;;;;;;;8.07;42.40;98998.16;1787191;78;21572;-62
2021/04/05 08:49:14;;;;;;;1.80;1.55;;;;;;;8.08;41.64;98993.77;1757167;80;21620;-62
2021/04/05 08:51:45;;;;;;;2.92;2.00;;;;;;;8.04;42.62;98986.97;1755557;79;22166;-62
2021/04/05 08:54:26;;;;;;;2.42;1.90;;;;;;;8.10;42.60;98986.70;1775832;79;21599;-63
2021/04/05 08:57:01;;;;;;;3.22;1.75;;;;;;;8.10;42.71;98982.34;1771858;79;21611;-66
2021/04/05 09:00:08;;;;;;;2.20;2.00;;;;;;;8.11;42.36;98974.02;1776024;79;21643;-64
2021/04/05 09:02:44;;;;;;;2.70;1.95;;;;;;;8.11;42.43;98974.86;1788745;79;21489;-63
2021/04/05 09:05:21;;;;;;;1.90;1.70;;;;;;;8.13;42.18;98968.25;1775904;79;22075;-63
2021/04/05 09:08:06;;;;;;;3.12;2.00;;;;;;;8.09;41.96;98963.59;1778987;79;22172;-62
2021/04/05 09:10:41;;;;;;;2.72;1.95;;;;;;;8.10;42.35;98960.08;1779545;79;21966;-61
2021/04/05 09:13:17;;;;;;;2.47;1.98;;;;;;;8.14;42.21;98959.02;1790038;79;21677;-63
2021/04/05 09:16:07;;;;;;;2.12;1.82;;;;;;;8.18;42.02;98954.50;1781493;79;21622;-62
2021/04/05 09:19:03;;;;;;;4.05;2.40;;;;;;;8.15;41.77;98948.92;1787165;79;22145;-63
2021/04/05 09:22:28;;;;;;;2.90;1.98;;;;;;;8.17;42.10;98942.31;1780534;79;21646;-62
2021/04/05 09:25:27;;;;;;;2.05;1.82;;;;;;;8.24;42.00;98946.37;1789510;79;21652;-65
2021/04/05 09:27:59;;;;;;;2.62;1.80;;;;;;;8.26;41.92;98934.52;1773980;79;21677;-60
2021/04/05 09:30:45;;;;;;;2.27;1.85;;;;;;;8.26;41.07;98933.21;1775551;79;21204;-63
2021/04/05 09:33:41;;;;;;;2.85;2.00;;;;;;;8.26;41.52;98924.88;1779771;79;22056;-62
2021/04/05 09:36:45;;;;;;;2.60;1.92;;;;;;;8.32;41.80;98922.45;1782756;79;21572;-63
2021/04/05 09:39:49;;;;;;;2.77;1.92;;;;;;;8.41;41.91;98924.66;1786264;79;21623;-64
2021/04/05 09:42:42;;;;;;;3.55;2.02;;;;;;;8.42;41.37;98926.84;1786176;79;21600;-64
2021/04/05 09:45:47;;;;;;;3.70;2.20;;;;;;;8.50;41.62;98915.57;1777180;79;21181;-64
2021/04/05 09:48:42;;;;;;;3.25;2.30;;;;;;;8.60;41.42;98912.91;1767920;79;22057;-65
2021/04/05 09:51:34;;;;;;;3.00;2.22;;;;;;;8.70;41.19;98908.95;1742461;81;21579;-64
2021/04/05 09:54:28;;;;;;;3.98;2.10;;;;;;;8.75;41.05;98904.79;1744179;81;21957;-66
2021/04/05 09:57:03;;;;;;;3.58;1.95;;;;;;;8.75;40.57;98907.41;1739901;81;22208;-58
2021/04/05 09:59:43;;;;;;;3.37;2.27;;;;;;;8.78;40.58;98909.90;1767109;79;21969;-68
2021/04/05 10:02:14;;;;;;;2.77;2.12;;;;;;;8.81;40.81;98907.58;1771102;79;22035;-57
2021/04/05 10:04:45;;;;;;;4.47;2.00;;;;;;;8.82;40.52;98907.52;1767859;80;21659;-59
2021/04/05 10:07:15;;;;;;;2.83;1.85;;;;;;;8.86;40.60;98902.98;1743707;80;21513;-71
2021/04/05 10:09:44;;;;;;;2.87;2.22;;;;;;;8.82;39.36;98902.74;1676901;81;21658;-67
2021/04/05 10:12:13;;;;;;;2.52;2.05;;;;;;;8.81;40.24;98899.25;1715620;81;21678;-69
2021/04/05 10:14:43;;;;;;;2.85;2.20;;;;;;;8.85;40.13;98896.86;1747277;80;22768;-68
2021/04/05 10:17:12;;;;;;;5.78;2.42;;;;;;;8.95;40.08;98894.68;1749056;81;21691;-67
2021/04/05 10:19:41;;;;;;;2.50;2.27;;;;;;;9.01;39.85;98891.75;1737313;81;21671;-66
2021/04/05 10:22:15;;;;;;;2.37;2.05;;;;;;;9.07;40.03;98887.98;1736635;79;21551;-70
2021/04/05 10:24:46;;;;;;;3.52;2.72;;;;;;;9.12;40.33;98876.81;1769024;79;21468;-68
2021/04/05 10:27:16;;;;;;;3.80;2.72;;;;;;;9.20;40.19;98876.44;1759795;80;21902;-67
2021/04/05 10:29:46;;;;;;;2.62;2.37;;;;;;;9.20;39.95;98874.66;1739103;79;21562;-67
2021/04/05 10:32:17;;;;;;;3.50;2.92;;;;;;;9.22;38.89;98870.66;1766916;79;21545;-66
2021/04/05 10:34:46;;;;;;;2.75;2.20;;;;;;;9.16;38.41;98866.55;1770461;79;21118;-69
2021/04/05 10:37:16;;;;;;;4.22;2.30;;;;;;;9.13;38.52;98863.61;1771711;79;21651;-64
2021/04/05 10:39:52;;;;;;;4.35;2.22;;;;;;;9.15;38.70;98862.22;1726983;81;22035;-64
2021/04/05 10:42:30;;;;;;;4.12;2.67;;;;;;;9.26;38.27;98861.70;1738907;80;21643;-64
2021/04/05 10:45:09;;;;;;;3.12;2.45;;;;;;;9.30;38.61;98854.06;1756613;80;21603;-63
2021/04/05 10:47:51;;;;;;;4.00;2.58;;;;;;;9.39;38.57;98849.66;1755699;80;21563;-64
2021/04/05 10:50:24;;;;;;;2.67;2.02;;;;;;;9.49;38.52;98850.91;1727238;80;21234;-64
2021/04/05 10:52:52;;;;;;;2.65;2.22;;;;;;;9.52;38.19;98845.48;1703245;82;21953;-69
2021/04/05 10:55:23;;;;;;;2.35;2.15;;;;;;;9.55;38.32;98834.84;1700152;81;21797;-64
2021/04/05 10:57:57;;;;;;;3.42;2.33;;;;;;;9.64;38.25;98836.13;1745607;80;21633;-64
2021/04/05 11:00:30;;;;;;;2.95;1.98;;;;;;;9.65;38.28;98837.84;1751885;79;21643;-63
2021/04/05 11:03:17;;;;;;;8.18;2.45;;;;;;;9.69;38.19;98827.55;1742374;80;21595;-61
2021/04/05 11:05:47;;;;;;;3.70;1.85;;;;;;;9.77;38.36;98823.69;1747340;80;21886;-62
2021/04/05 11:08:24;;;;;;;2.77;1.87;;;;;;;9.91;37.83;98818.56;1751277;79;21672;-62
2021/04/05 11:11:06;;;;;;;2.47;2.00;;;;;;;10.02;37.79;98819.28;1749837;80;22127;-65
2021/04/05 11:13:41;;;;;;;1.72;1.57;;;;;;;10.08;37.29;98817.19;1748879;79;21639;-64
2021/04/05 11:16:12;;;;;;;2.33;1.80;;;;;;;10.08;37.15;98814.56;1719091;79;21663;-63
2021/04/05 11:18:47;;;;;;;2.60;2.08;;;;;;;10.03;37.21;98811.80;1793632;79;21671;-62
2021/04/05 11:21:26;;;;;;;2.33;1.75;;;;;;;10.00;37.24;98805.39;1790221;77;22686;-62
2021/04/05 11:23:57;;;;;;;2.35;1.82;;;;;;;10.01;37.25;98803.16;1789775;78;21596;-64
2021/04/05 11:26:33;;;;;;;2.50;1.72;;;;;;;10.00;36.91;98806.26;1797664;78;21588;-62
2021/04/05 11:29:03;;;;;;;2.65;2.20;;;;;;;9.99;35.98;98796.67;1794644;78;21604;-62
2021/04/05 11:31:40;;;;;;;3.02;2.00;;;;;;;9.93;36.39;98799.16;1793753;77;22132;-63
2021/04/05 11:34:08;;;;;;;1.85;1.75;;;;;;;9.92;36.30;98789.57;1767010;79;21511;-62
2021/04/05 11:36:41;;;;;;;;;;;;;;;9.93;36.63;98792.59;1792499;77;21587;-63
2021/04/05 11:39:11;;;;;;;1.92;1.62;;;;;;;9.94;36.99;98790.81;1792150;77;21032;-63
2021/04/05 11:41:39;;;;;;;2.10;1.82;;;;;;;9.98;36.33;98780.99;1795843;79;21589;-62
2021/04/05 11:44:08;;;;;;;2.72;1.70;;;;;;;9.96;35.45;98779.75;1766203;79;22061;-64
2021/04/05 11:46:38;;;;;;;1.87;1.70;;;;;;;9.88;35.43;98777.55;1791146;77;21566;-63
2021/04/05 11:49:14;;;;;;;2.45;1.70;;;;;;;9.83;35.37;98774.78;1765407;78;21890;-64
2021/04/05 11:51:56;;;;;;;2.45;2.10;;;;;;;9.75;35.32;98777.34;1767611;79;21634;-61
2021/04/05 11:54:31;;;;;;;2.25;1.62;;;;;;;9.77;35.67;98770.70;1769158;79;21532;-59
2021/04/05 11:57:09;;;;;;;2.20;1.72;;;;;;;9.93;35.68;98763.71;1863787;75;23132;-64
2021/04/05 11:59:48;;;;;;;3.60;2.00;;;;;;;9.97;36.07;98762.25;1797654;77;21620;-64
2021/04/05 12:02:51;;;;;;;2.47;2.10;;;;;;;10.04;35.97;98760.52;1826565;76;22027;-66
2021/04/05 12:05:33;;;;;;;2.20;2.00;;;;;;;10.05;35.80;98758.25;1673874;82;21182;-62
2021/04/05 12:08:12;;;;;;;2.83;2.22;;;;;;;9.99;35.79;98754.66;1693125;82;21636;-68
2021/04/05 12:10:44;;;;;;;3.00;2.22;;;;;;;9.97;35.80;98739.45;1707553;82;21602;-61
2021/04/05 12:13:41;;;;;;;3.72;1.95;;;;;;;9.99;35.87;98743.31;1676886;83;21220;-61
2021/04/05 12:16:11;;;;;;;3.90;2.12;;;;;;;9.99;35.92;98737.59;1683683;82;21696;-60
2021/04/05 12:18:39;;;;;;;3.17;2.05;;;;;;;10.04;36.13;98737.31;1672773;83;21653;-61
2021/04/05 12:21:12;;;;;;;4.20;1.90;;;;;;;10.22;35.12;98724.95;1689840;82;21657;-61
2021/04/05 12:23:43;;;;;;;6.55;2.17;;;;;;;10.41;34.87;98721.70;1699866;82;21160;-61
2021/04/05 12:26:11;;;;;;;1.32;1.22;;;;;;;10.59;33.93;98722.44;1684436;82;21574;-62
2021/04/05 12:28:41;;;;;;;2.00;1.77;;;;;;;10.65;33.33;98710.72;1699751;82;21662;-62
2021/04/05 12:31:09;;;;;;;1.82;1.60;;;;;;;10.76;32.88;98710.95;1696651;82;21891;-62
2021/04/05 12:33:39;;;;;;;2.10;1.60;;;;;;;10.79;32.15;98717.32;1680742;82;21558;-61